Fairmount, Georgia
Current Conditions -  °F | °C
As of 2:15 AM on Sunday 23 Nov 2014 (Local Time) from KCNI Reporting Station
Overcast Overcast  
Wind Chill: 10°   Ceiling: 1700
Heat Index: 10°   Visibility: 10mi
Dew Point: -7°   Wind: 8mph
Humidity: 30%   Direction: 70°ENE
Pressure: 30.17"   Gusts: 17mph
Location:  34.44°N, 84.7°W
Report Text: KCNI 230715Z AUTO 07007G15KT 020V080 10SM OVC017 10/M07 A3017 RMK AO2
Loading
Personal Weather Stations






























Interactive Weather Map New forecast layout! Learn more

10-Day Weather Forecast

Advertisements
Track Severe Weather on mobile